Time;durP1;ratioP1;P1;durP2;ratioP2;P2;SDS_P1;SDS_P2;PMS_P1;PMS_P2;Temp;Humidity;BMP_temperature;BMP_pressure;BME280_temperature;BME280_humidity;BME280_pressure;Samples;Min_cycle;Max_cycle;Signal;HPM_P1;HPM_P2
2024/04/12 00:01:42;;;;;;;5.35;2.58;;;10.80;59.00;;;;;;5422444;26;20020;-85
2024/04/12 00:04:09;;;;;;;5.90;3.10;;;10.90;58.90;;;;;;5391017;26;20018;-83
2024/04/12 00:06:38;;;;;;;5.77;2.43;;;10.90;58.80;;;;;;5429427;26;20006;-81
2024/04/12 00:09:09;;;;;;;5.68;2.53;;;10.90;58.80;;;;;;5432429;26;20000;-84
2024/04/12 00:11:38;;;;;;;5.07;2.75;;;10.90;58.80;;;;;;5404028;26;20015;-83
2024/04/12 00:14:05;;;;;;;5.70;2.92;;;11.00;58.70;;;;;;5420391;26;20012;-85
2024/04/12 00:16:31;;;;;;;6.43;3.70;;;11.00;58.70;;;;;;5418128;26;20073;-82
2024/04/12 00:19:12;;;;;;;5.70;2.72;;;11.00;58.70;;;;;;5418625;26;20000;-78
2024/04/12 00:21:41;;;;;;;4.07;2.88;;;11.10;58.50;;;;;;5387432;26;19999;-81
2024/04/12 00:24:13;;;;;;;6.43;2.90;;;11.10;58.50;;;;;;5417265;26;20008;-81
2024/04/12 00:26:43;;;;;;;5.85;2.45;;;11.10;58.30;;;;;;5416782;26;20014;-80
2024/04/12 00:29:32;;;;;;;5.80;2.78;;;11.20;58.30;;;;;;5417415;26;20343;-80
2024/04/12 00:32:03;;;;;;;8.93;3.00;;;11.20;58.20;;;;;;5418024;26;20080;-80
2024/04/12 00:34:39;;;;;;;5.60;2.95;;;11.20;57.90;;;;;;5386280;26;20011;-81
2024/04/12 00:37:07;;;;;;;4.05;2.42;;;11.20;57.80;;;;;;5392219;26;20014;-80
2024/04/12 00:39:38;;;;;;;9.95;2.67;;;11.20;57.90;;;;;;5416929;26;20014;-78
2024/04/12 00:42:07;;;;;;;5.45;3.15;;;11.30;57.70;;;;;;5356030;26;20017;-81
2024/04/12 00:44:41;;;;;;;7.85;3.08;;;11.30;57.80;;;;;;5416652;26;20013;-80
2024/04/12 00:47:16;;;;;;;7.13;3.15;;;11.30;58.00;;;;;;5416454;26;20004;-79
2024/04/12 00:49:52;;;;;;;5.00;2.63;;;11.30;58.00;;;;;;5416716;26;20125;-81
2024/04/12 00:52:23;;;;;;;10.02;3.40;;;11.30;58.00;;;;;;5416444;26;20039;-81
2024/04/12 00:55:06;;;;;;;4.57;2.75;;;11.20;57.90;;;;;;5416591;26;20007;-80
2024/04/12 00:57:36;;;;;;;12.30;3.75;;;11.20;58.20;;;;;;5416393;26;20360;-80
2024/04/12 01:00:12;;;;;;;8.32;3.70;;;11.10;58.20;;;;;;5415183;26;19999;-79
2024/04/12 01:02:42;;;;;;;8.55;3.53;;;11.10;58.40;;;;;;5417035;26;20000;-78
2024/04/12 01:05:14;;;;;;;7.60;3.40;;;11.10;58.30;;;;;;5417761;26;20011;-81
2024/04/12 01:07:48;;;;;;;11.38;4.03;;;11.10;58.50;;;;;;5415149;26;20044;-81
2024/04/12 01:10:24;;;;;;;8.13;3.42;;;11.10;58.50;;;;;;5417158;26;20003;-80
2024/04/12 01:13:12;;;;;;;7.18;3.90;;;11.00;58.60;;;;;;5416082;26;20018;-81
2024/04/12 01:15:37;;;;;;;7.88;3.85;;;11.00;58.80;;;;;;5415609;26;20003;-82
2024/04/12 01:18:14;;;;;;;5.93;3.40;;;10.90;58.90;;;;;;5416530;26;20000;-80
2024/04/12 01:20:40;;;;;;;10.32;4.10;;;10.90;59.00;;;;;;5416361;26;20075;-80
2024/04/12 01:23:06;;;;;;;8.55;4.60;;;10.80;59.10;;;;;;5384878;26;20007;-80
2024/04/12 01:25:32;;;;;;;9.43;4.90;;;10.80;59.50;;;;;;5416368;26;20012;-81
2024/04/12 01:28:02;;;;;;;10.18;5.53;;;10.80;59.80;;;;;;5416128;26;20000;-80
2024/04/12 01:30:30;;;;;;;7.20;5.28;;;10.70;59.90;;;;;;5416219;26;20009;-80
2024/04/12 01:32:57;;;;;;;;;;;10.70;60.00;;;;;;5416236;26;20344;-79
2024/04/12 01:35:24;;;;;;;10.15;5.30;;;10.60;59.90;;;;;;5416249;26;19924;-81
2024/04/12 01:37:52;;;;;;;12.38;6.15;;;10.50;60.60;;;;;;5413979;26;20030;-81
2024/04/12 01:40:22;;;;;;;12.18;6.25;;;10.40;60.90;;;;;;5384726;26;20340;-80
2024/04/12 01:42:48;;;;;;;11.27;6.30;;;10.40;61.30;;;;;;5384170;26;20003;-80
2024/04/12 01:45:14;;;;;;;18.33;7.40;;;10.30;61.30;;;;;;5415660;26;20064;-82
2024/04/12 01:47:45;;;;;;;10.45;7.00;;;10.30;61.60;;;;;;5418189;26;20010;-80
2024/04/12 01:50:13;;;;;;;19.42;8.23;;;10.20;61.70;;;;;;5385817;26;21133;-81
2024/04/12 01:52:58;;;;;;;;;;;10.20;61.80;;;;;;5416893;26;20011;-79
2024/04/12 01:55:25;;;;;;;18.42;8.13;;;10.20;61.60;;;;;;5384496;26;19936;-81
2024/04/12 01:57:53;;;;;;;13.80;6.65;;;10.10;62.10;;;;;;5413886;26;20138;-80
2024/04/12 02:00:26;;;;;;;13.30;7.38;;;10.10;62.20;;;;;;5415525;26;20401;-81
2024/04/12 02:02:53;;;;;;;15.95;7.80;;;10.20;62.40;;;;;;5415349;26;20395;-81
2024/04/12 02:05:32;;;;;;;12.95;6.72;;;10.20;62.40;;;;;;5415152;26;20011;-80
2024/04/12 02:08:08;;;;;;;12.38;6.70;;;10.30;62.40;;;;;;5415647;26;20014;-81
2024/04/12 02:10:41;;;;;;;10.50;6.13;;;10.30;62.30;;;;;;5416221;26;20000;-81
2024/04/12 02:13:16;;;;;;;14.45;6.25;;;10.40;62.40;;;;;;5418720;26;20027;-81
2024/04/12 02:15:52;;;;;;;13.85;6.30;;;10.40;62.50;;;;;;5416667;26;20433;-79
2024/04/12 02:18:22;;;;;;;13.02;5.22;;;10.40;62.50;;;;;;5419083;26;20538;-79
2024/04/12 02:20:49;;;;;;;14.02;4.85;;;10.40;62.50;;;;;;5416917;26;19999;-80
2024/04/12 02:23:15;;;;;;;9.25;4.70;;;10.40;62.50;;;;;;5418648;26;20455;-80
2024/04/12 02:25:43;;;;;;;14.07;5.70;;;10.40;62.40;;;;;;5418253;26;20414;-81
2024/04/12 02:28:11;;;;;;;10.93;5.28;;;10.50;62.40;;;;;;5418407;26;20387;-81
2024/04/12 02:30:42;;;;;;;9.23;4.18;;;10.50;62.40;;;;;;5386942;26;20008;-80
2024/04/12 02:33:14;;;;;;;9.18;5.25;;;10.50;62.20;;;;;;5390541;26;20000;-80
2024/04/12 02:35:43;;;;;;;11.00;4.25;;;10.50;62.40;;;;;;5416560;26;20011;-79
2024/04/12 02:38:20;;;;;;;6.63;3.72;;;10.50;62.60;;;;;;5416632;26;20027;-81
2024/04/12 02:40:48;;;;;;;8.10;3.85;;;10.50;62.60;;;;;;5385973;26;19995;-80
2024/04/12 02:43:18;;;;;;;5.72;3.53;;;10.50;62.40;;;;;;5387501;26;19999;-80
2024/04/12 02:45:55;;;;;;;11.13;4.13;;;10.50;62.50;;;;;;5416409;26;20007;-79
2024/04/12 02:48:21;;;;;;;9.45;3.63;;;10.50;62.90;;;;;;5416446;26;20037;-81
2024/04/12 02:50:53;;;;;;;7.23;2.97;;;10.50;62.60;;;;;;5419029;26;20073;-81
2024/04/12 02:53:26;;;;;;;7.97;3.13;;;10.50;62.60;;;;;;5418574;26;20015;-81
2024/04/12 02:56:11;;;;;;;5.30;2.90;;;10.50;62.70;;;;;;5387387;26;20432;-81
2024/04/12 02:58:44;;;;;;;5.97;2.83;;;10.60;62.70;;;;;;5387578;26;19999;-82
2024/04/12 03:01:14;;;;;;;8.23;2.92;;;10.60;62.60;;;;;;5418375;26;20000;-80
2024/04/12 03:03:46;;;;;;;6.03;2.95;;;10.60;62.60;;;;;;5396140;26;20003;-79
2024/04/12 03:06:17;;;;;;;11.65;3.65;;;10.70;62.50;;;;;;5419937;26;20014;-81
2024/04/12 03:08:48;;;;;;;7.53;3.10;;;10.70;62.40;;;;;;5385544;26;20018;-80
2024/04/12 03:11:22;;;;;;;5.65;3.13;;;10.70;62.40;;;;;;5418800;26;20014;-81
2024/04/12 03:14:07;;;;;;;5.45;2.50;;;10.70;62.40;;;;;;5387437;26;20004;-81
2024/04/12 03:16:34;;;;;;;6.47;2.58;;;10.80;62.50;;;;;;5396419;26;20010;-80
2024/04/12 03:19:02;;;;;;;6.90;3.00;;;10.80;62.50;;;;;;5419473;26;20023;-81
2024/04/12 03:21:28;;;;;;;6.75;2.63;;;10.70;62.60;;;;;;5422512;26;20003;-80
2024/04/12 03:23:55;;;;;;;6.20;2.17;;;10.80;62.60;;;;;;5426917;26;19996;-81
2024/04/12 03:26:24;;;;;;;5.00;3.10;;;10.70;62.50;;;;;;5423926;26;20007;-81
2024/04/12 03:28:55;;;;;;;9.73;2.78;;;10.70;62.70;;;;;;5418693;26;20403;-81
2024/04/12 03:31:25;;;;;;;8.10;2.60;;;10.80;62.90;;;;;;5418081;26;20061;-81
2024/04/12 03:33:54;;;;;;;12.00;3.38;;;10.80;62.70;;;;;;5368554;26;20438;-79
2024/04/12 03:36:29;;;;;;;9.45;3.03;;;10.90;62.50;;;;;;5410589;26;20067;-81
2024/04/12 03:41:46;;;;;;;9.38;3.75;;;11.10;62.10;;;;;;5414820;26;19995;-83
2024/04/12 03:44:13;;;;;;;4.53;2.83;;;11.10;62.00;;;;;;5417193;26;20010;-82
2024/04/12 03:46:50;;;;;;;8.32;2.67;;;11.10;62.20;;;;;;5417029;26;19995;-81
2024/04/12 03:49:22;;;;;;;9.38;2.85;;;11.20;61.80;;;;;;5385841;26;19999;-81
2024/04/12 03:51:56;;;;;;;11.98;3.38;;;11.10;62.00;;;;;;5417263;26;20374;-82
2024/04/12 03:54:23;;;;;;;14.30;3.53;;;11.10;62.30;;;;;;5419856;26;20448;-82
2024/04/12 03:56:49;;;;;;;;;;;11.10;62.10;;;;;;5420494;26;20092;-82
2024/04/12 03:59:19;;;;;;;6.78;3.42;;;11.10;62.00;;;;;;5430941;26;20386;-83
2024/04/12 04:01:48;;;;;;;11.48;2.80;;;11.10;62.00;;;;;;5429908;26;20004;-82
2024/04/12 04:04:19;;;;;;;7.65;3.30;;;11.10;62.50;;;;;;5418056;26;20003;-81
2024/04/12 04:06:45;;;;;;;6.20;2.60;;;11.20;63.00;;;;;;5417176;26;20320;-82
2024/04/12 04:09:19;;;;;;;11.68;2.95;;;11.20;63.10;;;;;;5415833;26;20040;-81
2024/04/12 04:11:48;;;;;;;8.30;2.83;;;11.20;63.70;;;;;;5417335;26;20004;-80
2024/04/12 04:14:19;;;;;;;10.15;2.85;;;11.20;63.70;;;;;;5392212;26;20039;-79
2024/04/12 04:16:51;;;;;;;8.75;3.42;;;11.20;63.30;;;;;;5415392;26;20003;-80
2024/04/12 04:19:30;;;;;;;7.75;3.08;;;11.10;64.10;;;;;;5417450;26;20003;-78
2024/04/12 04:22:04;;;;;;;5.70;2.83;;;10.90;65.10;;;;;;5418862;26;20004;-80
2024/04/12 04:24:37;;;;;;;11.15;4.00;;;10.80;65.90;;;;;;5412967;26;20015;-80
2024/04/12 04:27:08;;;;;;;7.35;3.05;;;10.80;66.40;;;;;;5399062;26;20072;-80
2024/04/12 04:29:35;;;;;;;8.40;3.30;;;10.80;67.10;;;;;;5416562;26;20023;-80
2024/04/12 04:32:01;;;;;;;8.55;2.80;;;10.90;67.50;;;;;;5416939;26;20014;-81
2024/04/12 04:34:27;;;;;;;8.00;2.65;;;11.00;67.20;;;;;;5372182;26;20067;-81
2024/04/12 04:36:56;;;;;;;10.73;3.13;;;10.90;67.70;;;;;;5347221;26;20012;-81
2024/04/12 04:39:24;;;;;;;5.05;2.97;;;10.50;69.80;;;;;;5348219;26;20005;-80
2024/04/12 04:41:51;;;;;;;9.77;3.53;;;10.10;71.70;;;;;;5344158;26;19997;-81
2024/04/12 04:44:17;;;;;;;5.75;3.45;;;9.90;73.20;;;;;;5347184;26;19997;-80
2024/04/12 04:46:47;;;;;;;7.93;3.55;;;9.90;73.60;;;;;;5346496;26;20000;-81
2024/04/12 04:49:14;;;;;;;10.30;4.75;;;10.00;74.30;;;;;;5346210;26;20008;-81
2024/04/12 04:51:40;;;;;;;12.38;4.00;;;10.20;74.60;;;;;;5346538;26;20005;-78
2024/04/12 04:54:11;;;;;;;12.88;3.53;;;10.40;74.00;;;;;;5344897;26;20016;-80
2024/04/12 04:56:39;;;;;;;6.05;3.47;;;10.60;73.20;;;;;;5342323;26;19997;-81
2024/04/12 04:59:06;;;;;;;8.23;3.33;;;10.80;72.90;;;;;;5344135;26;20355;-81
2024/04/12 05:01:34;;;;;;;10.57;3.70;;;11.20;73.30;;;;;;5346285;26;20373;-81
2024/04/12 05:04:00;;;;;;;10.93;4.05;;;11.50;71.40;;;;;;5345768;26;20005;-80
2024/04/12 05:06:29;;;;;;;10.93;2.97;;;11.60;70.90;;;;;;5345798;26;20430;-81
2024/04/12 05:08:56;;;;;;;8.68;3.40;;;11.70;70.70;;;;;;5344235;26;20008;-81
2024/04/12 05:11:24;;;;;;;9.85;3.95;;;11.80;70.30;;;;;;5345245;26;20019;-81
2024/04/12 05:13:55;;;;;;;11.77;4.13;;;11.80;69.50;;;;;;5346390;26;20021;-82
2024/04/12 05:16:22;;;;;;;7.53;3.90;;;11.90;70.30;;;;;;5316743;26;20001;-82
2024/04/12 05:18:48;;;;;;;14.68;4.15;;;12.40;69.60;;;;;;5343944;26;20001;-81
2024/04/12 05:21:16;;;;;;;10.30;4.22;;;12.70;68.80;;;;;;5345546;26;20005;-80
2024/04/12 05:23:42;;;;;;;8.10;3.40;;;13.50;67.40;;;;;;5345332;26;20005;-81
2024/04/12 05:26:09;;;;;;;6.32;3.30;;;13.60;65.90;;;;;;5345166;26;20418;-81
2024/04/12 05:28:36;;;;;;;13.48;3.92;;;13.60;65.60;;;;;;5342097;26;20422;-81
2024/04/12 05:31:02;;;;;;;11.45;4.85;;;13.80;65.50;;;;;;5372095;26;20511;-81
2024/04/12 05:33:32;;;;;;;10.35;4.15;;;13.80;65.60;;;;;;5386400;26;20064;-82
2024/04/12 05:35:58;;;;;;;10.30;3.83;;;14.00;64.70;;;;;;5380128;26;20036;-83
2024/04/12 05:38:24;;;;;;;14.25;4.65;;;14.00;64.70;;;;;;5381022;26;20007;-83
2024/04/12 05:40:53;;;;;;;7.13;3.30;;;13.70;65.00;;;;;;5379586;26;20004;-81
2024/04/12 05:43:21;;;;;;;10.07;3.90;;;13.60;64.80;;;;;;5376772;26;20012;-81
2024/04/12 05:45:49;;;;;;;10.32;5.13;;;13.40;65.80;;;;;;5390762;26;20012;-81
2024/04/12 05:48:21;;;;;;;9.82;3.33;;;13.30;66.10;;;;;;5379518;26;20007;-80
2024/04/12 05:50:48;;;;;;;8.50;4.03;;;13.00;66.30;;;;;;5379639;26;20025;-84
2024/04/12 05:53:18;;;;;;;11.93;3.58;;;12.90;67.00;;;;;;5380433;26;20000;-83
2024/04/12 05:55:44;;;;;;;10.02;4.38;;;13.10;67.40;;;;;;5379935;26;20000;-83
2024/04/12 05:58:14;;;;;;;6.75;3.15;;;13.90;66.00;;;;;;5381266;26;20354;-80
2024/04/12 06:00:41;;;;;;;9.20;3.50;;;14.30;64.50;;;;;;5380328;26;20321;-81
2024/04/12 06:03:14;;;;;;;12.38;4.03;;;14.30;63.80;;;;;;5379772;26;19997;-83
2024/04/12 06:05:55;;;;;;;12.60;4.07;;;14.50;64.10;;;;;;5379363;26;20000;-82
2024/04/12 06:08:44;;;;;;;8.38;3.83;;;14.60;63.30;;;;;;5378832;26;20044;-83
2024/04/12 06:14:47;;;;;;;12.57;3.53;;;14.00;64.40;;;;;;5362744;26;20012;-83
2024/04/12 06:17:41;;;;;;;12.30;4.65;;;14.00;64.30;;;;;;5369005;26;20301;-87
2024/04/12 06:20:58;;;;;;;;;;;;;;;;;;;;;
2024/04/12 06:24:20;;;;;;;14.23;4.20;;;14.10;63.80;;;;;;5379743;26;20015;-81
2024/04/12 06:27:01;;;;;;;8.63;3.85;;;14.20;64.40;;;;;;5374516;26;20014;-84
2024/04/12 06:30:17;;;;;;;;;;;;;;;;;;;;;
2024/04/12 06:36:13;;;;;;;9.27;4.45;;;14.30;63.80;;;;;;5396801;26;20014;-83
2024/04/12 06:38:57;;;;;;;;;;;;;;;;;;;;;
2024/04/12 06:47:51;;;;;;;;;;;;;;;;;;;;;
2024/04/12 06:50:54;;;;;;;;;;;;;;;;;;;;;
2024/04/12 06:53:24;;;;;;;;;;;;;;;;;;;;;
2024/04/12 06:59:47;;;;;;;;;;;;;;;;;;;;;
2024/04/12 07:09:03;;;;;;;;;;;;;;;;;;;;;
2024/04/12 07:12:01;;;;;;;;;;;;;;;;;;;;;
2024/04/12 07:14:56;;;;;;;8.77;3.70;;;14.50;64.50;;;;;;5414324;26;20456;-83
2024/04/12 07:17:39;;;;;;;;;;;;;;;;;;;;;
2024/04/12 07:20:32;;;;;;;8.68;3.05;;;14.40;65.10;;;;;;5417269;26;20348;-87
2024/04/12 07:26:09;;;;;;;8.00;3.78;;;14.00;66.10;;;;;;5417343;26;20039;-86
2024/04/12 07:28:48;;;;;;;;;;;;;;;;;;;;;
2024/04/12 07:35:06;;;;;;;;;;;;;;;;;;;;;
2024/04/12 07:38:04;;;;;;;;;;;;;;;;;;;;;
2024/04/12 07:40:47;;;;;;;12.65;3.17;;;14.30;67.20;;;;;;5412997;26;20000;-88
2024/04/12 07:47:09;;;;;;;7.03;3.42;;;14.50;66.80;;;;;;5405313;26;20068;-88
2024/04/12 07:49:15;;;;;;;12.07;3.03;;;14.50;66.90;;;;;;5393563;26;20015;-88
2024/04/12 07:51:45;;;;;;;10.05;2.30;;;14.60;67.20;;;;;;5418646;26;20008;-86
2024/04/12 07:54:28;;;;;;;7.53;2.25;;;14.70;66.70;;;;;;5418094;26;19995;-86
2024/04/12 07:57:25;;;;;;;5.80;1.65;;;14.70;66.80;;;;;;5413566;26;20004;-86
2024/04/12 08:00:42;;;;;;;3.78;1.77;;;14.80;66.90;;;;;;5379847;26;20051;-86
2024/04/12 08:03:36;;;;;;;4.35;2.33;;;14.80;67.10;;;;;;5400138;26;20008;-85
2024/04/12 08:12:27;;;;;;;4.50;2.10;;;14.80;67.20;;;;;;5357892;26;19995;-87
2024/04/12 08:15:18;;;;;;;;;;;;;;;;;;;;;
2024/04/12 08:17:56;;;;;;;4.75;2.28;;;14.70;67.60;;;;;;5415648;26;20015;-85
2024/04/12 08:20:47;;;;;;;4.60;1.95;;;14.80;68.20;;;;;;5417028;26;20074;-84
2024/04/12 08:29:47;;;;;;;;;;;;;;;;;;;;;
2024/04/12 08:32:29;;;;;;;;;;;;;;;;;;;;;
2024/04/12 08:35:36;;;;;;;5.07;1.60;;;14.00;69.50;;;;;;5416765;26;20452;-84
2024/04/12 08:38:23;;;;;;;;;;;;;;;;;;;;;
2024/04/12 08:41:13;;;;;;;;;;;14.10;70.00;;;;;;5416288;26;20400;-82
2024/04/12 08:47:29;;;;;;;4.70;2.42;;;14.40;69.80;;;;;;5389894;26;20011;-85
2024/04/12 08:55:42;;;;;;;4.22;1.80;;;14.10;70.40;;;;;;5386433;26;20003;-83
2024/04/12 08:58:58;;;;;;;;;;;;;;;;;;;;;
2024/04/12 09:02:08;;;;;;;8.88;1.90;;;13.90;70.70;;;;;;5401631;26;19999;-82
2024/04/12 09:05:14;;;;;;;5.68;1.92;;;13.90;71.10;;;;;;5384346;26;20012;-83
2024/04/12 09:14:10;;;;;;;8.45;2.47;;;14.10;71.20;;;;;;5378230;26;20015;-84
2024/04/12 09:17:34;;;;;;;;;;;;;;;;;;;;;
2024/04/12 09:20:40;;;;;;;3.90;1.60;;;14.50;70.60;;;;;;5396321;26;20007;-82
2024/04/12 09:24:09;;;;;;;;;;;;;;;;;;;;;
2024/04/12 09:29:54;;;;;;;4.75;2.00;;;15.50;69.80;;;;;;5401459;26;19996;-85
2024/04/12 09:33:00;;;;;;;5.20;2.47;;;16.90;65.20;;;;;;5411799;26;19996;-81
2024/04/12 10:39:13;;;;;;;5.22;2.13;;;15.90;66.30;;;;;;5424945;26;20053;-86
2024/04/12 10:41:45;;;;;;;7.20;3.38;;;15.90;66.30;;;;;;5422468;26;20027;-88
2024/04/12 10:44:13;;;;;;;7.32;1.98;;;15.90;66.50;;;;;;5424890;26;19999;-89
2024/04/12 10:46:38;;;;;;;14.80;4.80;;;15.90;66.30;;;;;;5389169;26;20448;-88
2024/04/12 10:49:05;;;;;;;17.00;4.03;;;16.10;66.30;;;;;;5418942;26;20014;-88
2024/04/12 10:51:39;;;;;;;15.93;4.70;;;16.10;65.60;;;;;;5419321;26;20015;-90
2024/04/12 10:54:29;;;;;;;8.50;2.05;;;15.90;65.90;;;;;;5390023;26;20004;-90
2024/04/12 10:56:56;;;;;;;5.57;2.17;;;15.80;66.50;;;;;;5391337;26;20014;-88
2024/04/12 10:59:27;;;;;;;10.67;2.07;;;15.70;66.60;;;;;;5420734;26;20014;-84
2024/04/12 11:01:57;;;;;;;7.93;2.95;;;15.40;67.00;;;;;;5424092;26;20008;-89
2024/04/12 11:04:28;;;;;;;4.43;2.03;;;15.50;67.40;;;;;;5392228;26;20004;-85
2024/04/12 11:06:54;;;;;;;25.10;6.07;;;15.50;67.20;;;;;;5426008;26;20000;-89
2024/04/12 11:09:30;;;;;;;7.53;2.45;;;15.50;67.50;;;;;;5402994;26;20018;-89
2024/04/12 11:12:09;;;;;;;9.32;2.17;;;15.30;67.70;;;;;;5410108;26;20004;-85
2024/04/12 11:14:50;;;;;;;5.25;1.65;;;15.30;68.10;;;;;;5369982;26;20029;-86
2024/04/12 11:31:07;;;;;;;9.65;2.63;;;15.00;69.60;;;;;;5419379;26;20359;-87
2024/04/12 11:33:39;;;;;;;5.55;2.15;;;15.20;69.50;;;;;;5418518;26;20015;-87
2024/04/12 11:36:10;;;;;;;8.18;2.50;;;15.20;68.90;;;;;;5419804;26;20004;-86
2024/04/12 11:38:41;;;;;;;8.73;2.30;;;15.20;69.40;;;;;;5423218;26;20015;-87
2024/04/12 11:41:07;;;;;;;9.10;2.25;;;15.20;69.30;;;;;;5418680;26;20401;-89
2024/04/12 11:43:33;;;;;;;6.70;1.80;;;15.30;69.10;;;;;;5418466;26;20005;-87
2024/04/12 11:46:01;;;;;;;9.80;2.17;;;15.20;69.20;;;;;;5382283;26;20380;-87
2024/04/12 11:48:34;;;;;;;2.92;2.03;;;15.10;69.70;;;;;;5420050;26;20000;-86
2024/04/12 11:51:00;;;;;;;4.93;2.00;;;15.00;69.90;;;;;;5438156;26;19998;-87
2024/04/12 11:53:26;;;;;;;5.55;1.88;;;15.00;69.90;;;;;;5420132;26;20004;-88
2024/04/12 11:55:52;;;;;;;5.65;1.60;;;14.90;70.20;;;;;;5420470;26;20003;-87
2024/04/12 11:58:17;;;;;;;3.72;1.92;;;14.80;70.50;;;;;;5386976;26;20019;-88
2024/04/12 12:00:43;;;;;;;9.23;2.22;;;14.70;70.70;;;;;;5433019;26;20054;-87
2024/04/12 12:03:15;;;;;;;23.05;4.85;;;14.60;71.10;;;;;;5419117;26;20016;-83
2024/04/12 12:05:53;;;;;;;11.60;2.38;;;14.60;71.40;;;;;;5409653;26;19999;-86
2024/04/12 12:08:31;;;;;;;8.32;2.30;;;14.60;71.50;;;;;;5419560;26;20007;-86
2024/04/12 12:10:59;;;;;;;6.03;2.22;;;14.60;71.30;;;;;;5404385;26;20048;-84
2024/04/12 12:13:25;;;;;;;5.22;2.35;;;14.60;71.40;;;;;;5417943;26;20040;-83
2024/04/12 12:15:53;;;;;;;9.45;2.50;;;14.50;71.70;;;;;;5416769;26;20003;-89
2024/04/12 12:18:19;;;;;;;6.60;2.60;;;14.50;72.00;;;;;;5366267;26;19999;-85
2024/04/12 12:20:46;;;;;;;6.60;2.65;;;14.50;72.20;;;;;;5416922;26;20521;-85
2024/04/12 12:23:13;;;;;;;4.03;2.05;;;14.50;72.40;;;;;;5403778;26;20445;-87
2024/04/12 12:25:39;;;;;;;4.72;2.20;;;14.50;72.40;;;;;;5417327;26;19995;-86
2024/04/12 12:28:05;;;;;;;5.18;1.80;;;14.50;72.50;;;;;;5434609;26;20014;-85
2024/04/12 12:30:33;;;;;;;5.75;2.03;;;14.50;72.40;;;;;;5420047;26;20075;-83
2024/04/12 12:32:59;;;;;;;;;;;14.50;72.60;;;;;;5419071;26;20011;-85
2024/04/12 12:35:29;;;;;;;7.13;2.55;;;14.50;72.20;;;;;;5444633;26;19933;-86
2024/04/12 12:37:55;;;;;;;31.83;6.93;;;14.60;72.50;;;;;;5385490;26;20031;-84
2024/04/12 12:40:21;;;;;;;75.45;13.50;;;14.80;72.20;;;;;;5408354;26;19999;-82
2024/04/12 12:42:51;;;;;;;5.60;3.22;;;15.10;71.90;;;;;;5385054;26;20011;-82
2024/04/12 12:45:19;;;;;;;5.75;1.98;;;15.30;71.10;;;;;;5416177;26;20014;-82
2024/04/12 12:47:45;;;;;;;4.50;2.15;;;15.30;70.90;;;;;;5390242;26;20081;-86
2024/04/12 12:50:22;;;;;;;7.97;2.65;;;15.30;70.80;;;;;;5385078;26;20845;-80
2024/04/12 12:52:52;;;;;;;8.90;2.88;;;15.10;71.00;;;;;;5417179;26;20004;-83
2024/04/12 12:55:23;;;;;;;5.05;1.95;;;14.90;71.40;;;;;;5416910;26;19999;-83
2024/04/12 12:57:57;;;;;;;5.72;2.38;;;14.90;71.90;;;;;;5411847;26;20000;-83
2024/04/12 13:00:23;;;;;;;5.47;1.70;;;15.00;71.60;;;;;;5412114;26;19999;-83
2024/04/12 13:02:52;;;;;;;13.18;2.90;;;15.10;71.20;;;;;;5416838;26;20014;-85
2024/04/12 13:05:19;;;;;;;6.97;1.92;;;15.30;70.80;;;;;;5424573;26;20008;-81
2024/04/12 13:07:49;;;;;;;7.78;1.75;;;15.60;70.10;;;;;;5423187;26;20049;-83
2024/04/12 13:10:19;;;;;;;12.70;2.40;;;15.70;69.40;;;;;;5387685;26;20470;-84
2024/04/12 13:12:51;;;;;;;8.48;2.42;;;15.70;69.20;;;;;;5416269;26;20022;-83
2024/04/12 13:15:19;;;;;;;5.35;1.63;;;15.90;68.90;;;;;;5415303;26;20004;-82
2024/04/12 13:17:46;;;;;;;2.92;1.40;;;15.70;68.40;;;;;;5415425;26;20003;-81
2024/04/12 13:20:19;;;;;;;5.70;2.00;;;15.60;68.50;;;;;;5384465;26;20506;-83
2024/04/12 13:22:44;;;;;;;5.75;1.60;;;15.60;68.80;;;;;;5413344;26;20006;-86
2024/04/12 13:25:13;;;;;;;4.85;2.00;;;15.60;68.30;;;;;;5405994;26;20405;-85
2024/04/12 13:27:49;;;;;;;9.52;2.65;;;15.50;68.10;;;;;;5413935;26;20570;-87
2024/04/12 13:30:15;;;;;;;4.30;2.13;;;15.40;68.50;;;;;;5385253;26;20400;-85
2024/04/12 13:32:42;;;;;;;5.60;2.17;;;15.30;68.80;;;;;;5386172;26;20072;-87
2024/04/12 13:35:08;;;;;;;8.87;3.00;;;15.30;68.70;;;;;;5417815;26;20011;-88
2024/04/12 13:37:35;;;;;;;15.93;3.00;;;15.30;68.80;;;;;;5420829;26;19999;-89
2024/04/12 13:40:08;;;;;;;6.45;3.03;;;15.30;68.60;;;;;;5388688;26;20336;-88
2024/04/12 13:42:39;;;;;;;4.45;1.33;;;15.30;68.80;;;;;;5417931;26;20000;-85
2024/04/12 13:50:56;;;;;;;6.80;1.63;;;15.60;68.40;;;;;;5401822;26;20396;-83
2024/04/12 13:53:36;;;;;;;8.52;1.65;;;15.60;68.40;;;;;;5409989;26;20293;-83
2024/04/12 13:56:25;;;;;;;9.52;1.83;;;15.80;67.70;;;;;;5395787;26;19984;-91
2024/04/12 13:59:10;;;;;;;8.68;1.92;;;15.70;67.70;;;;;;5361624;26;19995;-89
2024/04/12 14:01:40;;;;;;;7.88;2.75;;;15.60;67.80;;;;;;5341781;26;20476;-91
2024/04/12 14:04:09;;;;;;;5.35;1.90;;;15.60;67.90;;;;;;5368750;26;20011;-90
2024/04/12 14:06:38;;;;;;;9.80;2.55;;;15.60;68.00;;;;;;5357857;26;19992;-92
2024/04/12 14:09:12;;;;;;;10.32;3.67;;;15.50;68.20;;;;;;5324834;26;20033;-89
2024/04/12 14:11:38;;;;;;;9.90;4.53;;;15.60;68.60;;;;;;5353371;26;20005;-87
2024/04/12 14:14:04;;;;;;;6.43;1.90;;;16.30;67.90;;;;;;5418055;21;20019;-90
2024/04/12 14:16:41;;;;;;;8.60;4.13;;;16.80;66.40;;;;;;5419232;26;20452;-92
2024/04/12 14:19:21;;;;;;;15.30;5.18;;;16.80;65.70;;;;;;5398946;26;20007;-93
2024/04/12 14:21:52;;;;;;;6.40;2.88;;;16.30;66.30;;;;;;5395306;26;20008;-90
2024/04/12 14:27:10;;;;;;;4.10;1.73;;;15.70;67.70;;;;;;5403899;26;20015;-91
2024/04/12 14:29:36;;;;;;;5.30;2.03;;;15.50;68.50;;;;;;5483736;26;20068;-91
2024/04/12 14:32:05;;;;;;;5.22;2.33;;;15.40;69.00;;;;;;5472324;26;19996;-85
2024/04/12 14:34:32;;;;;;;9.43;3.63;;;15.40;69.30;;;;;;5418043;26;20003;-81
2024/04/12 14:37:02;;;;;;;6.30;1.75;;;15.40;69.20;;;;;;5417444;26;20018;-82
2024/04/12 14:39:28;;;;;;;3.38;1.83;;;15.30;69.20;;;;;;5415772;26;20000;-83
2024/04/12 14:42:00;;;;;;;3.20;2.05;;;15.30;69.30;;;;;;5415944;26;20049;-83
2024/04/12 14:44:36;;;;;;;5.40;2.25;;;15.40;69.40;;;;;;5406910;26;20115;-83
2024/04/12 14:47:02;;;;;;;3.20;1.60;;;15.40;69.50;;;;;;5411243;26;20080;-83
2024/04/12 14:49:28;;;;;;;4.65;2.10;;;15.40;69.10;;;;;;5418442;26;20004;-82
2024/04/12 14:51:54;;;;;;;8.73;2.58;;;15.40;69.10;;;;;;5416918;26;20007;-85
2024/04/12 14:54:22;;;;;;;4.85;1.38;;;15.40;69.20;;;;;;5418723;26;20081;-82
2024/04/12 14:56:48;;;;;;;7.68;2.90;;;15.40;69.40;;;;;;5417880;26;20000;-84
2024/04/12 14:59:14;;;;;;;8.57;1.65;;;15.40;69.50;;;;;;5415633;26;20031;-83
2024/04/12 15:01:41;;;;;;;3.10;1.65;;;15.30;69.30;;;;;;5397428;26;20004;-83
2024/04/12 15:47:59;;;;;;;2.15;1.52;;;12.00;92.60;;;;;;5419508;26;20081;-86
2024/04/12 16:12:16;;;;;;;4.53;2.08;;;11.80;96.80;;;;;;5407036;26;20012;-82
2024/04/12 16:14:41;;;;;;;5.55;1.50;;;11.80;96.50;;;;;;5424903;26;20041;-83
2024/04/12 16:17:10;;;;;;;5.43;2.17;;;11.90;96.40;;;;;;5433316;26;20000;-82
2024/04/12 16:19:40;;;;;;;4.18;2.03;;;11.90;96.30;;;;;;5429676;26;20007;-84
2024/04/12 16:22:06;;;;;;;3.55;1.77;;;12.00;96.40;;;;;;5415789;26;20075;-84
2024/04/12 16:24:32;;;;;;;4.43;2.50;;;12.00;96.40;;;;;;5416384;26;19999;-83
2024/04/12 16:26:57;;;;;;;7.15;2.60;;;12.10;96.70;;;;;;5414980;26;20064;-85
2024/04/12 16:29:23;;;;;;;6.93;2.83;;;12.10;96.90;;;;;;5416826;26;20463;-83
2024/04/12 16:31:52;;;;;;;8.07;3.55;;;12.00;96.50;;;;;;5416466;26;20004;-83
2024/04/12 16:34:18;;;;;;;2.33;1.65;;;12.00;96.80;;;;;;5409136;26;20015;-82
2024/04/12 16:36:44;;;;;;;5.35;3.10;;;11.90;96.90;;;;;;5411297;26;20012;-83
2024/04/12 16:39:11;;;;;;;9.68;4.75;;;11.90;96.90;;;;;;5416920;26;20045;-82
2024/04/12 16:41:36;;;;;;;4.60;3.00;;;11.90;97.10;;;;;;5416915;26;20007;-81
2024/04/12 16:44:02;;;;;;;3.83;2.35;;;11.80;97.10;;;;;;5416625;26;20003;-82
2024/04/12 16:46:31;;;;;;;4.30;2.53;;;11.80;97.10;;;;;;5414886;26;20003;-82
2024/04/12 16:49:00;;;;;;;7.35;2.38;;;11.80;97.20;;;;;;5414837;26;20374;-83
2024/04/12 16:51:26;;;;;;;5.97;2.88;;;11.70;97.20;;;;;;5417299;26;20003;-84
2024/04/12 16:53:54;;;;;;;4.20;2.53;;;11.70;97.30;;;;;;5416112;26;20019;-82
2024/04/12 16:56:23;;;;;;;2.42;1.83;;;11.70;97.40;;;;;;5414670;26;20000;-82
2024/04/12 16:58:56;;;;;;;6.47;2.08;;;11.70;97.50;;;;;;5416416;26;20026;-81
2024/04/12 17:01:22;;;;;;;5.13;2.33;;;11.60;97.70;;;;;;5414416;26;20010;-83
2024/04/12 17:03:48;;;;;;;3.30;1.95;;;11.70;97.80;;;;;;5415163;26;20026;-83
2024/04/12 17:06:14;;;;;;;9.65;2.35;;;11.80;97.80;;;;;;5400350;26;20340;-83
2024/04/12 17:08:40;;;;;;;4.55;2.70;;;11.90;97.60;;;;;;5415748;26;19999;-82
2024/04/12 17:11:06;;;;;;;4.80;2.72;;;12.00;97.50;;;;;;5415834;26;20014;-82
2024/04/12 17:13:35;;;;;;;5.80;2.38;;;12.00;97.40;;;;;;5402658;26;20004;-85
2024/04/12 17:16:04;;;;;;;6.20;3.60;;;12.10;97.20;;;;;;5416548;26;20015;-79
2024/04/12 17:18:30;;;;;;;12.80;7.15;;;12.10;97.20;;;;;;5413790;26;20386;-80